sensor_id;sensor_type;location;lat;lon;timestamp;P1;durP1;ratioP1;P2;durP2;ratioP2
3066;SDS011;1544;48.834;9.194;2023-02-15T00:01:05;34.17;;;19.40;;
3066;SDS011;1544;48.834;9.194;2023-02-15T00:03:44;34.07;;;19.30;;
3066;SDS011;1544;48.834;9.194;2023-02-15T00:06:23;34.45;;;20.33;;
3066;SDS011;1544;48.834;9.194;2023-02-15T00:08:58;33.90;;;20.20;;
3066;SDS011;1544;48.834;9.194;2023-02-15T00:11:33;34.72;;;20.38;;
3066;SDS011;1544;48.834;9.194;2023-02-15T00:14:15;35.60;;;21.40;;
3066;SDS011;1544;48.834;9.194;2023-02-15T00:16:56;31.73;;;18.85;;
3066;SDS011;1544;48.834;9.194;2023-02-15T00:19:33;37.25;;;21.67;;
3066;SDS011;1544;48.834;9.194;2023-02-15T00:22:09;33.38;;;20.13;;
3066;SDS011;1544;48.834;9.194;2023-02-15T00:24:43;33.08;;;19.48;;
3066;SDS011;1544;48.834;9.194;2023-02-15T00:27:18;32.10;;;19.50;;
3066;SDS011;1544;48.834;9.194;2023-02-15T00:29:53;37.40;;;19.25;;
3066;SDS011;1544;48.834;9.194;2023-02-15T00:32:28;31.80;;;19.70;;
3066;SDS011;1544;48.834;9.194;2023-02-15T00:35:04;30.77;;;18.60;;
3066;SDS011;1544;48.834;9.194;2023-02-15T00:37:40;32.90;;;20.52;;
3066;SDS011;1544;48.834;9.194;2023-02-15T00:40:15;33.47;;;19.08;;
3066;SDS011;1544;48.834;9.194;2023-02-15T00:42:50;28.75;;;18.63;;
3066;SDS011;1544;48.834;9.194;2023-02-15T00:45:25;29.50;;;18.77;;
3066;SDS011;1544;48.834;9.194;2023-02-15T00:48:00;29.65;;;18.17;;
3066;SDS011;1544;48.834;9.194;2023-02-15T00:50:35;27.63;;;18.65;;
3066;SDS011;1544;48.834;9.194;2023-02-15T00:53:10;29.40;;;18.40;;
3066;SDS011;1544;48.834;9.194;2023-02-15T00:55:45;29.15;;;18.73;;
3066;SDS011;1544;48.834;9.194;2023-02-15T00:58:20;27.38;;;18.27;;
3066;SDS011;1544;48.834;9.194;2023-02-15T01:01:01;26.08;;;16.75;;
3066;SDS011;1544;48.834;9.194;2023-02-15T01:03:42;30.25;;;18.30;;
3066;SDS011;1544;48.834;9.194;2023-02-15T01:06:17;30.77;;;18.70;;
3066;SDS011;1544;48.834;9.194;2023-02-15T01:08:54;25.85;;;17.73;;
3066;SDS011;1544;48.834;9.194;2023-02-15T01:11:29;33.80;;;19.55;;
3066;SDS011;1544;48.834;9.194;2023-02-15T01:14:04;30.23;;;18.30;;
3066;SDS011;1544;48.834;9.194;2023-02-15T01:16:39;32.65;;;18.73;;
3066;SDS011;1544;48.834;9.194;2023-02-15T01:19:14;24.67;;;16.77;;
3066;SDS011;1544;48.834;9.194;2023-02-15T01:21:49;27.42;;;17.30;;
3066;SDS011;1544;48.834;9.194;2023-02-15T01:24:24;26.23;;;17.33;;
3066;SDS011;1544;48.834;9.194;2023-02-15T01:26:59;28.80;;;17.83;;
3066;SDS011;1544;48.834;9.194;2023-02-15T01:29:34;27.27;;;18.55;;
3066;SDS011;1544;48.834;9.194;2023-02-15T01:32:09;26.83;;;17.90;;
3066;SDS011;1544;48.834;9.194;2023-02-15T01:34:44;26.10;;;17.20;;
3066;SDS011;1544;48.834;9.194;2023-02-15T01:37:20;27.23;;;16.58;;
3066;SDS011;1544;48.834;9.194;2023-02-15T01:39:55;28.88;;;17.48;;
3066;SDS011;1544;48.834;9.194;2023-02-15T01:42:30;30.98;;;17.27;;
3066;SDS011;1544;48.834;9.194;2023-02-15T01:45:16;27.30;;;17.25;;
3066;SDS011;1544;48.834;9.194;2023-02-15T01:48:05;27.10;;;16.65;;
3066;SDS011;1544;48.834;9.194;2023-02-15T01:50:53;28.75;;;17.17;;
3066;SDS011;1544;48.834;9.194;2023-02-15T01:53:32;28.58;;;18.02;;
3066;SDS011;1544;48.834;9.194;2023-02-15T01:56:19;28.50;;;17.92;;
3066;SDS011;1544;48.834;9.194;2023-02-15T01:58:58;27.38;;;16.52;;
3066;SDS011;1544;48.834;9.194;2023-02-15T02:01:39;24.85;;;16.15;;
3066;SDS011;1544;48.834;9.194;2023-02-15T02:04:24;27.52;;;17.23;;
3066;SDS011;1544;48.834;9.194;2023-02-15T02:07:08;26.27;;;16.33;;
3066;SDS011;1544;48.834;9.194;2023-02-15T02:10:06;25.02;;;14.65;;
3066;SDS011;1544;48.834;9.194;2023-02-15T02:12:45;27.15;;;15.77;;
3066;SDS011;1544;48.834;9.194;2023-02-15T02:15:23;27.15;;;15.50;;
3066;SDS011;1544;48.834;9.194;2023-02-15T02:40:30;27.65;;;15.77;;
3066;SDS011;1544;48.834;9.194;2023-02-15T02:46:07;28.65;;;18.60;;
3066;SDS011;1544;48.834;9.194;2023-02-15T02:49:08;25.33;;;15.63;;
3066;SDS011;1544;48.834;9.194;2023-02-15T02:51:43;29.52;;;16.38;;
3066;SDS011;1544;48.834;9.194;2023-02-15T02:54:21;28.25;;;17.58;;
3066;SDS011;1544;48.834;9.194;2023-02-15T02:56:56;30.73;;;18.13;;
3066;SDS011;1544;48.834;9.194;2023-02-15T02:59:37;25.73;;;15.90;;
3066;SDS011;1544;48.834;9.194;2023-02-15T03:02:18;25.25;;;16.85;;
3066;SDS011;1544;48.834;9.194;2023-02-15T03:05:06;28.27;;;15.65;;
3066;SDS011;1544;48.834;9.194;2023-02-15T03:07:49;26.60;;;15.50;;
3066;SDS011;1544;48.834;9.194;2023-02-15T03:10:26;23.88;;;15.95;;
3066;SDS011;1544;48.834;9.194;2023-02-15T03:13:04;30.00;;;17.80;;
3066;SDS011;1544;48.834;9.194;2023-02-15T03:15:40;24.25;;;15.55;;
3066;SDS011;1544;48.834;9.194;2023-02-15T03:18:39;24.77;;;14.90;;
3066;SDS011;1544;48.834;9.194;2023-02-15T03:21:31;24.33;;;15.25;;
3066;SDS011;1544;48.834;9.194;2023-02-15T03:24:35;23.50;;;14.18;;
3066;SDS011;1544;48.834;9.194;2023-02-15T03:27:42;23.80;;;15.60;;
3066;SDS011;1544;48.834;9.194;2023-02-15T03:30:22;27.48;;;17.23;;
3066;SDS011;1544;48.834;9.194;2023-02-15T03:33:01;25.92;;;16.02;;
3066;SDS011;1544;48.834;9.194;2023-02-15T03:35:49;27.05;;;16.75;;
3066;SDS011;1544;48.834;9.194;2023-02-15T03:39:04;28.42;;;17.20;;
3066;SDS011;1544;48.834;9.194;2023-02-15T03:41:58;26.15;;;15.80;;
3066;SDS011;1544;48.834;9.194;2023-02-15T03:47:47;30.30;;;17.52;;
3066;SDS011;1544;48.834;9.194;2023-02-15T03:50:29;30.92;;;18.10;;
3066;SDS011;1544;48.834;9.194;2023-02-15T03:53:25;23.42;;;15.73;;
3066;SDS011;1544;48.834;9.194;2023-02-15T03:56:01;26.30;;;16.27;;
3066;SDS011;1544;48.834;9.194;2023-02-15T03:58:37;26.50;;;17.27;;
3066;SDS011;1544;48.834;9.194;2023-02-15T04:01:35;32.17;;;17.50;;
3066;SDS011;1544;48.834;9.194;2023-02-15T04:04:35;28.45;;;17.75;;
3066;SDS011;1544;48.834;9.194;2023-02-15T04:07:13;31.30;;;17.17;;
3066;SDS011;1544;48.834;9.194;2023-02-15T04:09:48;40.95;;;19.08;;
3066;SDS011;1544;48.834;9.194;2023-02-15T04:12:43;35.78;;;18.63;;
3066;SDS011;1544;48.834;9.194;2023-02-15T04:15:19;30.85;;;17.13;;
3066;SDS011;1544;48.834;9.194;2023-02-15T04:18:12;35.15;;;17.55;;
3066;SDS011;1544;48.834;9.194;2023-02-15T04:20:48;33.53;;;18.77;;
3066;SDS011;1544;48.834;9.194;2023-02-15T04:23:42;29.00;;;17.40;;
3066;SDS011;1544;48.834;9.194;2023-02-15T04:26:35;32.25;;;18.10;;
3066;SDS011;1544;48.834;9.194;2023-02-15T04:29:14;29.65;;;17.15;;
3066;SDS011;1544;48.834;9.194;2023-02-15T04:31:50;24.67;;;16.10;;
3066;SDS011;1544;48.834;9.194;2023-02-15T04:34:27;29.67;;;16.77;;
3066;SDS011;1544;48.834;9.194;2023-02-15T04:37:02;31.52;;;17.33;;
3066;SDS011;1544;48.834;9.194;2023-02-15T04:39:39;27.40;;;15.80;;
3066;SDS011;1544;48.834;9.194;2023-02-15T04:42:14;29.83;;;17.08;;
3066;SDS011;1544;48.834;9.194;2023-02-15T04:44:52;29.75;;;17.75;;
3066;SDS011;1544;48.834;9.194;2023-02-15T04:47:30;31.42;;;18.33;;
3066;SDS011;1544;48.834;9.194;2023-02-15T04:50:05;31.83;;;17.77;;
3066;SDS011;1544;48.834;9.194;2023-02-15T04:52:41;30.45;;;18.50;;
3066;SDS011;1544;48.834;9.194;2023-02-15T04:55:16;32.88;;;19.02;;
3066;SDS011;1544;48.834;9.194;2023-02-15T04:57:52;31.02;;;18.15;;
3066;SDS011;1544;48.834;9.194;2023-02-15T05:00:27;27.75;;;17.02;;
3066;SDS011;1544;48.834;9.194;2023-02-15T05:03:02;30.63;;;17.33;;
3066;SDS011;1544;48.834;9.194;2023-02-15T05:05:40;30.48;;;17.77;;
3066;SDS011;1544;48.834;9.194;2023-02-15T05:08:15;30.35;;;16.45;;
3066;SDS011;1544;48.834;9.194;2023-02-15T05:10:53;30.45;;;18.15;;
3066;SDS011;1544;48.834;9.194;2023-02-15T05:13:31;25.95;;;15.73;;
3066;SDS011;1544;48.834;9.194;2023-02-15T05:16:06;23.85;;;15.50;;
3066;SDS011;1544;48.834;9.194;2023-02-15T05:18:42;37.85;;;18.15;;
3066;SDS011;1544;48.834;9.194;2023-02-15T05:21:22;28.30;;;17.63;;
3066;SDS011;1544;48.834;9.194;2023-02-15T05:23:58;29.70;;;16.65;;
3066;SDS011;1544;48.834;9.194;2023-02-15T05:26:33;27.13;;;16.70;;
3066;SDS011;1544;48.834;9.194;2023-02-15T05:29:26;26.85;;;16.33;;
3066;SDS011;1544;48.834;9.194;2023-02-15T05:32:01;24.20;;;16.25;;
3066;SDS011;1544;48.834;9.194;2023-02-15T05:34:38;25.88;;;16.73;;
3066;SDS011;1544;48.834;9.194;2023-02-15T05:37:13;23.63;;;14.35;;
3066;SDS011;1544;48.834;9.194;2023-02-15T05:39:48;24.35;;;16.95;;
3066;SDS011;1544;48.834;9.194;2023-02-15T05:42:23;21.77;;;15.45;;
3066;SDS011;1544;48.834;9.194;2023-02-15T05:44:58;23.02;;;15.93;;
3066;SDS011;1544;48.834;9.194;2023-02-15T05:47:33;29.60;;;16.30;;
3066;SDS011;1544;48.834;9.194;2023-02-15T05:50:09;20.58;;;14.10;;
3066;SDS011;1544;48.834;9.194;2023-02-15T05:52:46;19.10;;;13.75;;
3066;SDS011;1544;48.834;9.194;2023-02-15T05:55:21;23.02;;;14.50;;
3066;SDS011;1544;48.834;9.194;2023-02-15T05:57:56;23.25;;;14.07;;
3066;SDS011;1544;48.834;9.194;2023-02-15T06:00:31;18.35;;;13.75;;
3066;SDS011;1544;48.834;9.194;2023-02-15T06:03:06;24.35;;;14.05;;
3066;SDS011;1544;48.834;9.194;2023-02-15T06:05:45;20.00;;;14.18;;
3066;SDS011;1544;48.834;9.194;2023-02-15T06:08:21;24.65;;;14.43;;
3066;SDS011;1544;48.834;9.194;2023-02-15T06:10:59;20.55;;;13.32;;
3066;SDS011;1544;48.834;9.194;2023-02-15T06:13:38;20.45;;;13.75;;
3066;SDS011;1544;48.834;9.194;2023-02-15T06:16:13;19.90;;;14.23;;
3066;SDS011;1544;48.834;9.194;2023-02-15T06:18:50;19.85;;;14.10;;
3066;SDS011;1544;48.834;9.194;2023-02-15T06:21:28;25.52;;;15.50;;
3066;SDS011;1544;48.834;9.194;2023-02-15T06:24:04;20.73;;;14.10;;
3066;SDS011;1544;48.834;9.194;2023-02-15T06:26:42;22.65;;;15.73;;
3066;SDS011;1544;48.834;9.194;2023-02-15T06:29:19;21.02;;;14.30;;
3066;SDS011;1544;48.834;9.194;2023-02-15T06:31:54;22.40;;;15.95;;
3066;SDS011;1544;48.834;9.194;2023-02-15T06:34:29;23.15;;;14.25;;
3066;SDS011;1544;48.834;9.194;2023-02-15T06:37:06;30.58;;;18.00;;
3066;SDS011;1544;48.834;9.194;2023-02-15T06:39:42;26.23;;;16.77;;
3066;SDS011;1544;48.834;9.194;2023-02-15T06:42:18;21.50;;;14.98;;
3066;SDS011;1544;48.834;9.194;2023-02-15T06:44:54;28.27;;;17.10;;
3066;SDS011;1544;48.834;9.194;2023-02-15T06:47:30;23.50;;;15.55;;
3066;SDS011;1544;48.834;9.194;2023-02-15T06:50:05;23.42;;;15.50;;
3066;SDS011;1544;48.834;9.194;2023-02-15T06:52:43;21.95;;;14.60;;
3066;SDS011;1544;48.834;9.194;2023-02-15T06:55:18;23.77;;;14.45;;
3066;SDS011;1544;48.834;9.194;2023-02-15T06:57:57;23.13;;;15.60;;
3066;SDS011;1544;48.834;9.194;2023-02-15T07:00:32;23.63;;;15.00;;
3066;SDS011;1544;48.834;9.194;2023-02-15T07:03:08;28.77;;;16.27;;
3066;SDS011;1544;48.834;9.194;2023-02-15T07:05:43;26.13;;;16.35;;
3066;SDS011;1544;48.834;9.194;2023-02-15T07:08:19;26.98;;;15.20;;
3066;SDS011;1544;48.834;9.194;2023-02-15T07:10:55;22.33;;;14.88;;
3066;SDS011;1544;48.834;9.194;2023-02-15T07:13:53;25.63;;;15.18;;
3066;SDS011;1544;48.834;9.194;2023-02-15T07:16:29;25.55;;;15.82;;
3066;SDS011;1544;48.834;9.194;2023-02-15T07:19:04;22.73;;;15.35;;
3066;SDS011;1544;48.834;9.194;2023-02-15T07:21:39;24.38;;;14.93;;
3066;SDS011;1544;48.834;9.194;2023-02-15T07:24:14;19.67;;;13.53;;
3066;SDS011;1544;48.834;9.194;2023-02-15T07:26:50;23.55;;;15.10;;
3066;SDS011;1544;48.834;9.194;2023-02-15T07:29:25;23.55;;;15.10;;
3066;SDS011;1544;48.834;9.194;2023-02-15T07:32:00;29.42;;;17.65;;
3066;SDS011;1544;48.834;9.194;2023-02-15T07:34:35;25.55;;;17.67;;
3066;SDS011;1544;48.834;9.194;2023-02-15T07:37:14;24.08;;;16.52;;
3066;SDS011;1544;48.834;9.194;2023-02-15T07:39:49;23.02;;;15.55;;
3066;SDS011;1544;48.834;9.194;2023-02-15T07:42:26;21.23;;;15.30;;
3066;SDS011;1544;48.834;9.194;2023-02-15T07:45:01;27.10;;;15.63;;
3066;SDS011;1544;48.834;9.194;2023-02-15T07:47:35;24.00;;;16.45;;
3066;SDS011;1544;48.834;9.194;2023-02-15T07:50:11;21.97;;;13.97;;
3066;SDS011;1544;48.834;9.194;2023-02-15T07:52:46;22.85;;;15.25;;
3066;SDS011;1544;48.834;9.194;2023-02-15T07:55:21;27.43;;;15.80;;
3066;SDS011;1544;48.834;9.194;2023-02-15T07:57:56;22.80;;;14.87;;
3066;SDS011;1544;48.834;9.194;2023-02-15T08:00:31;19.95;;;14.77;;
3066;SDS011;1544;48.834;9.194;2023-02-15T08:03:26;23.27;;;14.43;;
3066;SDS011;1544;48.834;9.194;2023-02-15T08:06:03;21.27;;;14.77;;
3066;SDS011;1544;48.834;9.194;2023-02-15T08:08:38;22.30;;;15.10;;
3066;SDS011;1544;48.834;9.194;2023-02-15T08:11:15;22.90;;;14.80;;
3066;SDS011;1544;48.834;9.194;2023-02-15T08:16:54;20.80;;;13.77;;
3066;SDS011;1544;48.834;9.194;2023-02-15T08:19:31;20.30;;;15.05;;
3066;SDS011;1544;48.834;9.194;2023-02-15T08:22:07;24.13;;;15.40;;
3066;SDS011;1544;48.834;9.194;2023-02-15T08:24:46;22.87;;;15.37;;
3066;SDS011;1544;48.834;9.194;2023-02-15T08:27:21;22.58;;;15.52;;
3066;SDS011;1544;48.834;9.194;2023-02-15T08:30:00;26.93;;;15.60;;
3066;SDS011;1544;48.834;9.194;2023-02-15T08:32:36;21.88;;;15.07;;
3066;SDS011;1544;48.834;9.194;2023-02-15T08:35:11;26.42;;;15.98;;
3066;SDS011;1544;48.834;9.194;2023-02-15T08:37:46;24.70;;;16.00;;
3066;SDS011;1544;48.834;9.194;2023-02-15T08:40:21;22.17;;;15.30;;
3066;SDS011;1544;48.834;9.194;2023-02-15T08:42:56;25.60;;;16.87;;
3066;SDS011;1544;48.834;9.194;2023-02-15T08:45:31;22.90;;;15.10;;
3066;SDS011;1544;48.834;9.194;2023-02-15T08:48:06;22.57;;;14.53;;
3066;SDS011;1544;48.834;9.194;2023-02-15T08:50:41;26.60;;;15.33;;
3066;SDS011;1544;48.834;9.194;2023-02-15T08:53:16;36.07;;;18.27;;
3066;SDS011;1544;48.834;9.194;2023-02-15T08:55:56;23.67;;;14.63;;
3066;SDS011;1544;48.834;9.194;2023-02-15T08:58:32;24.50;;;16.40;;
3066;SDS011;1544;48.834;9.194;2023-02-15T09:01:09;20.80;;;14.47;;
3066;SDS011;1544;48.834;9.194;2023-02-15T09:03:46;23.93;;;16.00;;
3066;SDS011;1544;48.834;9.194;2023-02-15T09:06:24;26.67;;;17.60;;
3066;SDS011;1544;48.834;9.194;2023-02-15T09:08:59;24.33;;;16.13;;
3066;SDS011;1544;48.834;9.194;2023-02-15T09:11:36;22.00;;;15.47;;
3066;SDS011;1544;48.834;9.194;2023-02-15T09:14:15;31.17;;;17.77;;
3066;SDS011;1544;48.834;9.194;2023-02-15T09:16:55;22.07;;;16.03;;
3066;SDS011;1544;48.834;9.194;2023-02-15T09:19:30;20.17;;;14.07;;
3066;SDS011;1544;48.834;9.194;2023-02-15T09:22:05;21.37;;;15.20;;
3066;SDS011;1544;48.834;9.194;2023-02-15T09:24:40;21.33;;;15.20;;
3066;SDS011;1544;48.834;9.194;2023-02-15T09:27:15;24.03;;;16.63;;
3066;SDS011;1544;48.834;9.194;2023-02-15T09:29:50;24.97;;;17.00;;
3066;SDS011;1544;48.834;9.194;2023-02-15T09:32:25;21.37;;;15.03;;
3066;SDS011;1544;48.834;9.194;2023-02-15T09:35:00;24.33;;;15.33;;
3066;SDS011;1544;48.834;9.194;2023-02-15T09:37:35;27.53;;;17.20;;
3066;SDS011;1544;48.834;9.194;2023-02-15T09:40:11;27.40;;;17.20;;
3066;SDS011;1544;48.834;9.194;2023-02-15T09:42:54;26.20;;;16.80;;
3066;SDS011;1544;48.834;9.194;2023-02-15T09:46:25;23.97;;;16.40;;
3066;SDS011;1544;48.834;9.194;2023-02-15T09:49:16;22.60;;;15.73;;
3066;SDS011;1544;48.834;9.194;2023-02-15T09:55:38;21.00;;;15.60;;
3066;SDS011;1544;48.834;9.194;2023-02-15T09:58:42;23.57;;;15.43;;
3066;SDS011;1544;48.834;9.194;2023-02-15T10:19:46;28.10;;;17.50;;
3066;SDS011;1544;48.834;9.194;2023-02-15T10:22:49;32.63;;;18.50;;
3066;SDS011;1544;48.834;9.194;2023-02-15T10:26:15;28.73;;;19.27;;
3066;SDS011;1544;48.834;9.194;2023-02-15T10:29:00;30.40;;;19.43;;
3066;SDS011;1544;48.834;9.194;2023-02-15T10:31:48;28.77;;;18.00;;
3066;SDS011;1544;48.834;9.194;2023-02-15T10:34:37;26.00;;;17.50;;
3066;SDS011;1544;48.834;9.194;2023-02-15T10:37:22;28.07;;;18.07;;
3066;SDS011;1544;48.834;9.194;2023-02-15T10:53:24;31.50;;;20.00;;
3066;SDS011;1544;48.834;9.194;2023-02-15T11:02:37;27.77;;;18.90;;
3066;SDS011;1544;48.834;9.194;2023-02-15T11:08:46;24.80;;;17.40;;
3066;SDS011;1544;48.834;9.194;2023-02-15T11:11:30;28.33;;;19.50;;
3066;SDS011;1544;48.834;9.194;2023-02-15T11:14:33;27.10;;;19.60;;
3066;SDS011;1544;48.834;9.194;2023-02-15T11:17:17;29.83;;;19.80;;
3066;SDS011;1544;48.834;9.194;2023-02-15T11:20:02;25.80;;;19.13;;
3066;SDS011;1544;48.834;9.194;2023-02-15T11:22:59;23.10;;;18.03;;
3066;SDS011;1544;48.834;9.194;2023-02-15T11:25:36;25.97;;;19.80;;
3066;SDS011;1544;48.834;9.194;2023-02-15T11:28:27;26.60;;;18.90;;
3066;SDS011;1544;48.834;9.194;2023-02-15T11:31:18;26.73;;;19.60;;
3066;SDS011;1544;48.834;9.194;2023-02-15T11:33:58;29.70;;;19.93;;
3066;SDS011;1544;48.834;9.194;2023-02-15T11:36:39;24.70;;;18.40;;
3066;SDS011;1544;48.834;9.194;2023-02-15T11:39:17;27.27;;;18.30;;
3066;SDS011;1544;48.834;9.194;2023-02-15T11:41:55;24.00;;;18.30;;
3066;SDS011;1544;48.834;9.194;2023-02-15T11:44:56;23.27;;;18.03;;
3066;SDS011;1544;48.834;9.194;2023-02-15T11:47:57;27.20;;;19.90;;
3066;SDS011;1544;48.834;9.194;2023-02-15T11:50:33;23.77;;;17.90;;
3066;SDS011;1544;48.834;9.194;2023-02-15T11:53:15;23.93;;;18.30;;
3066;SDS011;1544;48.834;9.194;2023-02-15T11:55:55;25.37;;;19.00;;
3066;SDS011;1544;48.834;9.194;2023-02-15T12:04:26;21.23;;;16.70;;
3066;SDS011;1544;48.834;9.194;2023-02-15T12:10:36;21.60;;;18.33;;
3066;SDS011;1544;48.834;9.194;2023-02-15T12:13:22;24.03;;;18.33;;
3066;SDS011;1544;48.834;9.194;2023-02-15T12:15:57;21.23;;;17.33;;
3066;SDS011;1544;48.834;9.194;2023-02-15T12:18:40;23.73;;;19.20;;
3066;SDS011;1544;48.834;9.194;2023-02-15T12:21:26;22.97;;;19.43;;
3066;SDS011;1544;48.834;9.194;2023-02-15T12:27:01;26.17;;;19.63;;
3066;SDS011;1544;48.834;9.194;2023-02-15T12:29:50;18.93;;;16.90;;
3066;SDS011;1544;48.834;9.194;2023-02-15T12:32:30;23.80;;;18.40;;
3066;SDS011;1544;48.834;9.194;2023-02-15T12:35:13;23.07;;;19.57;;
3066;SDS011;1544;48.834;9.194;2023-02-15T12:38:03;27.77;;;20.93;;
3066;SDS011;1544;48.834;9.194;2023-02-15T12:40:44;26.97;;;20.20;;
3066;SDS011;1544;48.834;9.194;2023-02-15T12:43:37;26.20;;;21.40;;
3066;SDS011;1544;48.834;9.194;2023-02-15T12:46:13;25.90;;;20.73;;
3066;SDS011;1544;48.834;9.194;2023-02-15T12:49:23;23.80;;;19.73;;
3066;SDS011;1544;48.834;9.194;2023-02-15T12:57:30;23.40;;;19.70;;
3066;SDS011;1544;48.834;9.194;2023-02-15T13:02:55;25.07;;;19.87;;
3066;SDS011;1544;48.834;9.194;2023-02-15T13:05:34;23.83;;;19.90;;
3066;SDS011;1544;48.834;9.194;2023-02-15T13:08:19;25.13;;;20.67;;
3066;SDS011;1544;48.834;9.194;2023-02-15T13:11:06;29.63;;;20.10;;
3066;SDS011;1544;48.834;9.194;2023-02-15T13:13:50;28.33;;;21.10;;
3066;SDS011;1544;48.834;9.194;2023-02-15T13:16:34;23.60;;;21.00;;
3066;SDS011;1544;48.834;9.194;2023-02-15T13:19:14;25.23;;;20.67;;
3066;SDS011;1544;48.834;9.194;2023-02-15T13:21:57;22.57;;;20.17;;
3066;SDS011;1544;48.834;9.194;2023-02-15T13:24:38;25.40;;;19.87;;
3066;SDS011;1544;48.834;9.194;2023-02-15T13:27:19;28.53;;;20.70;;
3066;SDS011;1544;48.834;9.194;2023-02-15T13:29:58;27.43;;;21.40;;
3066;SDS011;1544;48.834;9.194;2023-02-15T13:32:39;24.90;;;20.37;;
3066;SDS011;1544;48.834;9.194;2023-02-15T13:35:17;25.80;;;21.40;;
3066;SDS011;1544;48.834;9.194;2023-02-15T13:38:06;23.03;;;19.77;;
3066;SDS011;1544;48.834;9.194;2023-02-15T13:40:58;22.03;;;19.70;;
3066;SDS011;1544;48.834;9.194;2023-02-15T13:47:26;22.20;;;19.00;;
3066;SDS011;1544;48.834;9.194;2023-02-15T13:50:06;26.80;;;19.90;;
3066;SDS011;1544;48.834;9.194;2023-02-15T14:01:55;22.90;;;18.03;;
3066;SDS011;1544;48.834;9.194;2023-02-15T14:05:09;20.20;;;17.87;;
3066;SDS011;1544;48.834;9.194;2023-02-15T14:08:21;21.90;;;18.47;;
3066;SDS011;1544;48.834;9.194;2023-02-15T14:21:15;22.03;;;17.70;;
3066;SDS011;1544;48.834;9.194;2023-02-15T14:26:40;18.67;;;15.40;;
3066;SDS011;1544;48.834;9.194;2023-02-15T14:29:47;23.43;;;18.80;;
3066;SDS011;1544;48.834;9.194;2023-02-15T14:32:36;17.30;;;14.63;;
3066;SDS011;1544;48.834;9.194;2023-02-15T14:35:17;19.50;;;16.60;;
3066;SDS011;1544;48.834;9.194;2023-02-15T14:41:43;14.70;;;13.20;;
3066;SDS011;1544;48.834;9.194;2023-02-15T14:44:33;14.90;;;13.07;;
3066;SDS011;1544;48.834;9.194;2023-02-15T14:47:16;16.87;;;15.13;;
3066;SDS011;1544;48.834;9.194;2023-02-15T14:50:27;18.33;;;14.37;;
3066;SDS011;1544;48.834;9.194;2023-02-15T14:58:55;17.97;;;15.43;;
3066;SDS011;1544;48.834;9.194;2023-02-15T15:01:34;16.67;;;14.97;;
3066;SDS011;1544;48.834;9.194;2023-02-15T15:04:12;17.23;;;15.57;;
3066;SDS011;1544;48.834;9.194;2023-02-15T15:12:55;16.00;;;14.10;;
3066;SDS011;1544;48.834;9.194;2023-02-15T15:18:06;17.20;;;15.43;;
3066;SDS011;1544;48.834;9.194;2023-02-15T15:20:47;16.73;;;14.70;;
3066;SDS011;1544;48.834;9.194;2023-02-15T15:23:41;16.83;;;14.87;;
3066;SDS011;1544;48.834;9.194;2023-02-15T15:26:23;16.87;;;14.60;;
3066;SDS011;1544;48.834;9.194;2023-02-15T15:29:01;16.77;;;15.07;;
3066;SDS011;1544;48.834;9.194;2023-02-15T15:31:39;16.37;;;14.60;;
3066;SDS011;1544;48.834;9.194;2023-02-15T15:34:41;15.67;;;13.80;;
3066;SDS011;1544;48.834;9.194;2023-02-15T15:37:48;16.80;;;14.93;;
3066;SDS011;1544;48.834;9.194;2023-02-15T15:50:12;17.53;;;15.67;;
3066;SDS011;1544;48.834;9.194;2023-02-15T15:52:51;18.00;;;14.53;;
3066;SDS011;1544;48.834;9.194;2023-02-15T15:55:31;18.30;;;14.70;;
3066;SDS011;1544;48.834;9.194;2023-02-15T15:58:08;18.17;;;14.87;;
3066;SDS011;1544;48.834;9.194;2023-02-15T16:00:59;20.27;;;14.83;;
3066;SDS011;1544;48.834;9.194;2023-02-15T16:03:50;19.43;;;16.47;;
3066;SDS011;1544;48.834;9.194;2023-02-15T16:06:29;18.77;;;16.87;;
3066;SDS011;1544;48.834;9.194;2023-02-15T16:09:18;21.13;;;17.83;;
3066;SDS011;1544;48.834;9.194;2023-02-15T16:11:57;22.43;;;18.27;;
3066;SDS011;1544;48.834;9.194;2023-02-15T16:14:36;23.00;;;18.90;;
3066;SDS011;1544;48.834;9.194;2023-02-15T16:17:14;20.67;;;18.47;;
3066;SDS011;1544;48.834;9.194;2023-02-15T16:19:58;22.20;;;17.70;;
3066;SDS011;1544;48.834;9.194;2023-02-15T16:22:40;21.07;;;18.47;;
3066;SDS011;1544;48.834;9.194;2023-02-15T16:28:08;25.33;;;18.70;;
3066;SDS011;1544;48.834;9.194;2023-02-15T16:30:54;21.23;;;18.37;;
3066;SDS011;1544;48.834;9.194;2023-02-15T16:33:46;26.37;;;21.33;;
3066;SDS011;1544;48.834;9.194;2023-02-15T16:36:25;24.70;;;20.80;;
3066;SDS011;1544;48.834;9.194;2023-02-15T16:41:46;24.20;;;20.10;;
3066;SDS011;1544;48.834;9.194;2023-02-15T16:44:23;26.00;;;20.07;;
3066;SDS011;1544;48.834;9.194;2023-02-15T16:46:58;24.03;;;20.30;;
3066;SDS011;1544;48.834;9.194;2023-02-15T16:49:33;27.27;;;20.40;;
3066;SDS011;1544;48.834;9.194;2023-02-15T16:52:10;23.20;;;20.30;;
3066;SDS011;1544;48.834;9.194;2023-02-15T16:54:58;27.13;;;20.40;;
3066;SDS011;1544;48.834;9.194;2023-02-15T16:57:36;35.37;;;23.13;;
3066;SDS011;1544;48.834;9.194;2023-02-15T17:00:17;28.50;;;22.30;;
3066;SDS011;1544;48.834;9.194;2023-02-15T17:03:00;25.77;;;21.00;;
3066;SDS011;1544;48.834;9.194;2023-02-15T17:05:56;28.33;;;20.53;;
3066;SDS011;1544;48.834;9.194;2023-02-15T17:08:36;28.60;;;22.50;;
3066;SDS011;1544;48.834;9.194;2023-02-15T17:11:21;26.80;;;21.30;;
3066;SDS011;1544;48.834;9.194;2023-02-15T17:14:12;26.53;;;20.10;;
3066;SDS011;1544;48.834;9.194;2023-02-15T17:17:29;27.57;;;21.13;;
3066;SDS011;1544;48.834;9.194;2023-02-15T17:19:57;28.43;;;21.40;;
3066;SDS011;1544;48.834;9.194;2023-02-15T17:22:32;28.07;;;21.83;;
3066;SDS011;1544;48.834;9.194;2023-02-15T17:25:17;26.10;;;21.50;;
3066;SDS011;1544;48.834;9.194;2023-02-15T17:27:57;30.60;;;21.00;;
3066;SDS011;1544;48.834;9.194;2023-02-15T17:30:34;26.67;;;21.33;;
3066;SDS011;1544;48.834;9.194;2023-02-15T17:33:58;32.17;;;21.03;;
3066;SDS011;1544;48.834;9.194;2023-02-15T17:41:33;30.03;;;22.63;;
3066;SDS011;1544;48.834;9.194;2023-02-15T17:44:11;32.67;;;24.43;;
3066;SDS011;1544;48.834;9.194;2023-02-15T17:46:48;31.27;;;22.10;;
3066;SDS011;1544;48.834;9.194;2023-02-15T17:49:24;27.00;;;21.47;;
3066;SDS011;1544;48.834;9.194;2023-02-15T17:52:12;31.73;;;23.43;;
3066;SDS011;1544;48.834;9.194;2023-02-15T17:54:48;29.13;;;22.20;;
3066;SDS011;1544;48.834;9.194;2023-02-15T17:57:41;34.00;;;23.17;;
3066;SDS011;1544;48.834;9.194;2023-02-15T18:00:16;29.10;;;21.70;;
3066;SDS011;1544;48.834;9.194;2023-02-15T18:03:10;30.10;;;22.93;;
3066;SDS011;1544;48.834;9.194;2023-02-15T18:06:07;29.00;;;22.50;;
3066;SDS011;1544;48.834;9.194;2023-02-15T18:09:15;31.00;;;22.60;;
3066;SDS011;1544;48.834;9.194;2023-02-15T18:15:04;31.03;;;22.97;;
3066;SDS011;1544;48.834;9.194;2023-02-15T18:17:46;31.57;;;23.10;;
3066;SDS011;1544;48.834;9.194;2023-02-15T18:23:13;37.17;;;24.73;;
3066;SDS011;1544;48.834;9.194;2023-02-15T18:25:49;37.70;;;23.43;;
3066;SDS011;1544;48.834;9.194;2023-02-15T18:28:24;32.17;;;23.27;;
3066;SDS011;1544;48.834;9.194;2023-02-15T18:31:01;28.70;;;22.27;;
3066;SDS011;1544;48.834;9.194;2023-02-15T18:33:44;32.67;;;22.60;;
3066;SDS011;1544;48.834;9.194;2023-02-15T18:36:27;32.50;;;21.83;;
3066;SDS011;1544;48.834;9.194;2023-02-15T18:39:22;32.43;;;24.80;;
3066;SDS011;1544;48.834;9.194;2023-02-15T18:42:05;33.30;;;23.60;;
3066;SDS011;1544;48.834;9.194;2023-02-15T18:45:06;29.30;;;22.57;;
3066;SDS011;1544;48.834;9.194;2023-02-15T18:47:54;31.03;;;21.63;;
3066;SDS011;1544;48.834;9.194;2023-02-15T18:50:31;33.17;;;23.17;;
3066;SDS011;1544;48.834;9.194;2023-02-15T18:53:12;31.80;;;24.07;;
3066;SDS011;1544;48.834;9.194;2023-02-15T18:55:52;29.50;;;21.77;;
3066;SDS011;1544;48.834;9.194;2023-02-15T18:58:27;33.03;;;22.30;;
3066;SDS011;1544;48.834;9.194;2023-02-15T19:01:03;30.73;;;21.77;;